createdAt,value
2023-10-03T00:01:09.928Z,99086.41
2023-10-03T00:03:37.108Z,99108.38
2023-10-03T00:06:04.384Z,99105.03
2023-10-03T00:08:31.331Z,99088.53
2023-10-03T00:10:58.465Z,99095.22
2023-10-03T00:13:26.464Z,99107.16
2023-10-03T00:15:53.390Z,99103.75
2023-10-03T00:18:20.444Z,99098.75
2023-10-03T00:20:48.668Z,99107.56
2023-10-03T00:23:16.003Z,99094.25
2023-10-03T00:25:44.121Z,99089.25
2023-10-03T00:28:12.245Z,99071.09
2023-10-03T00:30:41.570Z,99076.59
2023-10-03T00:33:12.085Z,99094.91
2023-10-03T00:35:41.758Z,99095.03
2023-10-03T00:38:15.937Z,99082.06
2023-10-03T00:40:57.147Z,99085.81
2023-10-03T00:43:25.753Z,99076.31
2023-10-03T00:45:52.810Z,99080.81
2023-10-03T00:48:21.891Z,99065.56
2023-10-03T00:50:49.702Z,99064.97
2023-10-03T00:53:17.058Z,99060.53
2023-10-03T00:55:49.113Z,99055.53
2023-10-03T00:58:25.844Z,99058.28
2023-10-03T01:00:55.768Z,99060.53
2023-10-03T01:03:33.365Z,99068.50
2023-10-03T01:06:21.018Z,99055.88
2023-10-03T01:08:50.300Z,99065.38
2023-10-03T01:11:21.182Z,99049.53
2023-10-03T01:13:55.158Z,99060.22
2023-10-03T01:16:30.362Z,99060.72
2023-10-03T01:19:08.254Z,99061.75
2023-10-03T01:21:36.067Z,99066.25
2023-10-03T01:24:05.487Z,99058.75
2023-10-03T01:26:33.102Z,99054.25
2023-10-03T01:29:00.975Z,99050.91
2023-10-03T01:31:30.848Z,99041.38
2023-10-03T01:33:57.697Z,99056.34
2023-10-03T01:36:24.612Z,99042.03
2023-10-03T01:38:51.520Z,99047.25
2023-10-03T01:41:19.267Z,99047.03
2023-10-03T01:43:46.263Z,99041.94
2023-10-03T01:46:19.208Z,99048.06
2023-10-03T01:48:46.162Z,99044.75
2023-10-03T01:51:13.029Z,99044.34
2023-10-03T01:53:43.187Z,99032.44
2023-10-03T01:56:10.651Z,99036.19
2023-10-03T01:58:37.807Z,99037.97
2023-10-03T02:01:04.896Z,99014.03
2023-10-03T02:03:34.155Z,99013.06
2023-10-03T02:06:01.434Z,99019.16
2023-10-03T02:08:28.411Z,99008.28
2023-10-03T02:10:55.385Z,99006.72
2023-10-03T02:13:23.290Z,99005.47
2023-10-03T02:15:52.396Z,99014.25
2023-10-03T02:18:20.877Z,99011.75
2023-10-03T02:20:56.494Z,99003.41
2023-10-03T02:23:25.889Z,98999.84
2023-10-03T02:26:12.193Z,99000.78
2023-10-03T02:28:40.284Z,99001.50
2023-10-03T02:31:10.593Z,98995.88
2023-10-03T02:33:44.837Z,98993.97
2023-10-03T02:36:12.209Z,98987.63
2023-10-03T02:38:39.603Z,98982.28
2023-10-03T02:41:08.142Z,98976.66
2023-10-03T02:43:40.240Z,98980.00
2023-10-03T02:46:14.166Z,98970.91
2023-10-03T02:48:42.396Z,98983.34
2023-10-03T02:51:11.057Z,98964.53
2023-10-03T02:53:38.301Z,98979.28
2023-10-03T02:56:05.814Z,98979.06
2023-10-03T02:58:32.776Z,98972.91
2023-10-03T03:00:59.859Z,98969.94
2023-10-03T03:03:34.386Z,98968.28
2023-10-03T03:06:06.124Z,98982.88
2023-10-03T03:08:33.087Z,98962.66
2023-10-03T03:11:01.935Z,98960.66
2023-10-03T03:13:37.453Z,98967.31
2023-10-03T03:16:06.003Z,98965.91
2023-10-03T03:18:41.074Z,98972.03
2023-10-03T03:21:11.189Z,98974.53
2023-10-03T03:23:39.845Z,98973.09
2023-10-03T03:26:18.506Z,98983.13
2023-10-03T03:28:51.593Z,98977.25
2023-10-03T03:31:22.911Z,98973.09
2023-10-03T03:33:52.952Z,98980.53
2023-10-03T03:36:24.214Z,98971.22
2023-10-03T03:38:53.357Z,98982.94
2023-10-03T03:41:20.786Z,98983.34
2023-10-03T03:43:50.068Z,98981.25
2023-10-03T03:46:20.061Z,98983.75
2023-10-03T03:48:48.155Z,98983.97
2023-10-03T03:51:16.199Z,98977.38
2023-10-03T03:53:44.238Z,98982.31
2023-10-03T03:56:14.057Z,98972.38
2023-10-03T03:58:42.302Z,98973.34
2023-10-03T04:01:15.387Z,98984.19
2023-10-03T04:03:47.243Z,98973.09
2023-10-03T04:06:14.474Z,98973.97
2023-10-03T04:08:52.014Z,98972.28
2023-10-03T04:11:27.244Z,98972.28
2023-10-03T04:13:57.073Z,98970.72
2023-10-03T04:16:28.124Z,98974.25
2023-10-03T04:18:55.886Z,98967.38
2023-10-03T04:21:27.577Z,98966.84
2023-10-03T04:23:55.180Z,98970.41
2023-10-03T04:26:23.100Z,98971.84
2023-10-03T04:28:50.016Z,98977.09
2023-10-03T04:31:16.970Z,98974.47
2023-10-03T04:33:45.419Z,98975.44
2023-10-03T04:36:13.461Z,98963.41
2023-10-03T04:38:41.762Z,98947.53
2023-10-03T04:41:10.331Z,98964.47
2023-10-03T04:43:37.813Z,98965.28
2023-10-03T04:46:05.708Z,98966.22
2023-10-03T04:48:33.255Z,98963.72
2023-10-03T04:51:00.762Z,98953.59
2023-10-03T04:53:27.914Z,98957.88
2023-10-03T04:55:54.917Z,98971.44
2023-10-03T04:58:23.407Z,98958.91
2023-10-03T05:00:50.853Z,98969.88
2023-10-03T05:03:20.711Z,98980.94
2023-10-03T05:05:50.297Z,98973.22
2023-10-03T05:08:19.379Z,98968.31
2023-10-03T05:10:47.179Z,98967.25
2023-10-03T05:13:14.299Z,98963.72
2023-10-03T05:15:42.124Z,98967.38
2023-10-03T05:18:09.318Z,98974.16
2023-10-03T05:20:38.973Z,98962.38
2023-10-03T05:23:07.647Z,98981.06
2023-10-03T05:25:44.286Z,98971.22
2023-10-03T05:28:14.551Z,98972.41
2023-10-03T05:30:42.119Z,98964.66
2023-10-03T05:33:10.119Z,98969.16
2023-10-03T05:35:37.597Z,98977.63
2023-10-03T05:38:10.432Z,98975.09
2023-10-03T05:40:38.212Z,98975.00
2023-10-03T05:43:06.399Z,98966.66
2023-10-03T05:45:36.012Z,98974.28
2023-10-03T05:48:06.063Z,98955.78
2023-10-03T05:50:34.551Z,98983.78
2023-10-03T05:53:01.973Z,98960.59
2023-10-03T05:55:28.896Z,98986.50
2023-10-03T05:57:56.827Z,98985.53
2023-10-03T06:00:24.556Z,98966.75
2023-10-03T06:02:51.965Z,98981.47
2023-10-03T06:05:19.428Z,98990.75
2023-10-03T06:07:47.079Z,98994.00
2023-10-03T06:10:18.027Z,98992.56
2023-10-03T06:12:45.626Z,98996.81
2023-10-03T06:15:15.445Z,98987.75
2023-10-03T06:17:44.262Z,98986.38
2023-10-03T06:20:15.239Z,99007.78
2023-10-03T06:22:42.630Z,99000.06
2023-10-03T06:25:11.005Z,98999.16
2023-10-03T06:27:38.585Z,99009.47
2023-10-03T06:30:08.289Z,99006.97
2023-10-03T06:32:35.790Z,98999.16
2023-10-03T06:35:03.841Z,99003.94
2023-10-03T06:37:30.731Z,99012.63
2023-10-03T06:39:58.081Z,99002.34
2023-10-03T06:42:27.120Z,99012.41
2023-10-03T06:44:54.018Z,99012.19
2023-10-03T06:47:22.010Z,99012.63
2023-10-03T06:49:50.367Z,99009.78
2023-10-03T06:52:18.172Z,99009.47
2023-10-03T06:54:45.113Z,99005.91
2023-10-03T06:57:12.275Z,99015.94
2023-10-03T06:59:39.448Z,99006.84
2023-10-03T07:02:07.109Z,99000.69
2023-10-03T07:04:35.834Z,99019.06
2023-10-03T07:07:04.961Z,99002.34
2023-10-03T07:09:32.216Z,99019.28
2023-10-03T07:11:59.910Z,99001.31
2023-10-03T07:14:27.190Z,99008.84
2023-10-03T07:16:54.379Z,99025.75
2023-10-03T07:19:22.692Z,99005.09
2023-10-03T07:21:49.900Z,99025.34
2023-10-03T07:24:19.042Z,99018.25
2023-10-03T07:26:46.085Z,99018.88
2023-10-03T07:29:13.073Z,99000.81
2023-10-03T07:31:40.066Z,99013.25
2023-10-03T07:34:07.879Z,99011.25
2023-10-03T07:36:34.736Z,99005.28
2023-10-03T07:39:02.010Z,98997.09
2023-10-03T07:41:29.550Z,99006.31
2023-10-03T07:43:56.582Z,99003.25
2023-10-03T07:46:27.074Z,99005.44
2023-10-03T07:49:00.177Z,98991.41
2023-10-03T07:51:27.887Z,99002.25
2023-10-03T07:53:56.915Z,98994.31
2023-10-03T07:56:27.056Z,98994.72
2023-10-03T07:58:57.600Z,98984.47
2023-10-03T08:01:27.052Z,98975.06
2023-10-03T08:03:58.883Z,98993.50
2023-10-03T08:06:28.958Z,98983.03
2023-10-03T08:09:00.849Z,98989.38
2023-10-03T08:11:32.817Z,99001.06
2023-10-03T08:14:14.747Z,98992.88
2023-10-03T08:16:43.205Z,99000.06
2023-10-03T08:19:23.627Z,98989.16
2023-10-03T08:21:51.604Z,98992.97
2023-10-03T08:24:25.643Z,98988.97
2023-10-03T08:27:00.340Z,98997.19
2023-10-03T08:29:28.198Z,98989.50
2023-10-03T08:31:59.270Z,98987.38
2023-10-03T08:34:31.516Z,98983.44
2023-10-03T08:37:02.773Z,98988.13
2023-10-03T08:39:33.483Z,98977.63
2023-10-03T08:42:17.289Z,98973.59
2023-10-03T08:44:55.665Z,98969.53
2023-10-03T08:47:32.647Z,98950.22
2023-10-03T08:50:12.329Z,98962.19
2023-10-03T08:52:48.949Z,98948.59
2023-10-03T08:55:21.664Z,98937.72
2023-10-03T08:57:51.954Z,98938.31
2023-10-03T09:00:26.342Z,98953.13
2023-10-03T09:03:10.561Z,98950.81
2023-10-03T09:05:41.331Z,98950.19
2023-10-03T09:08:10.889Z,98937.97
2023-10-03T09:10:54.758Z,98948.56
2023-10-03T09:13:24.900Z,98938.72
2023-10-03T09:16:01.281Z,98932.09
2023-10-03T09:18:31.201Z,98934.91
2023-10-03T09:21:00.812Z,98939.25
2023-10-03T09:23:28.826Z,98926.53
2023-10-03T09:25:58.412Z,98934.94
2023-10-03T09:28:36.651Z,98921.84
2023-10-03T09:31:09.530Z,98929.25
2023-10-03T09:33:41.742Z,98914.97
2023-10-03T09:36:09.919Z,98907.84
2023-10-03T09:38:51.095Z,98928.63
2023-10-03T09:41:18.809Z,98920.34
2023-10-03T09:43:56.743Z,98907.88
2023-10-03T09:46:25.446Z,98914.94
2023-10-03T09:48:56.106Z,98895.13
2023-10-03T09:51:37.705Z,98919.28
2023-10-03T09:54:10.236Z,98899.28
2023-10-03T09:56:41.680Z,98926.00
2023-10-03T09:59:19.055Z,98928.78
2023-10-03T10:01:47.747Z,98909.59
2023-10-03T10:04:18.314Z,98907.25
2023-10-03T10:06:51.525Z,98897.72
2023-10-03T10:09:31.798Z,98898.63
2023-10-03T10:12:20.492Z,98907.13
2023-10-03T10:15:02.409Z,98896.22
2023-10-03T10:17:53.377Z,98885.72
2023-10-03T10:20:44.736Z,98888.72
2023-10-03T10:23:12.432Z,98877.31
2023-10-03T10:25:43.433Z,98879.50
2023-10-03T10:28:15.683Z,98882.81
2023-10-03T10:31:11.550Z,98878.88
2023-10-03T10:33:42.683Z,98865.69
2023-10-03T10:36:11.797Z,98868.00
2023-10-03T10:38:39.717Z,98861.91
2023-10-03T10:41:12.983Z,98865.69
2023-10-03T10:44:14.799Z,98865.53
2023-10-03T10:46:51.122Z,98862.38
2023-10-03T10:49:35.081Z,98874.31
2023-10-03T10:52:04.016Z,98872.50
2023-10-03T10:54:31.060Z,98866.22
2023-10-03T10:57:01.428Z,98866.72
2023-10-03T10:59:29.795Z,98866.25
2023-10-03T11:01:59.002Z,98877.16
2023-10-03T11:04:30.296Z,98868.06
2023-10-03T11:06:57.322Z,98873.03
2023-10-03T11:09:24.672Z,98873.00
2023-10-03T11:11:54.592Z,98841.22
2023-10-03T11:14:32.810Z,98871.72
2023-10-03T11:17:05.990Z,98904.34
2023-10-03T11:19:34.586Z,98886.13
2023-10-03T11:22:01.652Z,98897.72
2023-10-03T11:24:30.179Z,98887.94
2023-10-03T11:27:00.831Z,98895.72
2023-10-03T11:29:38.462Z,98887.91
2023-10-03T11:32:19.063Z,98888.09
2023-10-03T11:34:46.420Z,98869.19
2023-10-03T11:37:35.309Z,98872.31
2023-10-03T11:40:17.687Z,98881.28
2023-10-03T11:42:56.507Z,98879.63
2023-10-03T11:45:25.418Z,98874.97
2023-10-03T11:48:09.974Z,98877.00
2023-10-03T11:50:39.381Z,98885.44
2023-10-03T11:53:09.435Z,98875.97
2023-10-03T11:55:37.668Z,98890.06
2023-10-03T11:58:08.397Z,98884.22
2023-10-03T12:00:36.549Z,98881.56
2023-10-03T12:03:10.814Z,98881.09
2023-10-03T12:05:40.363Z,98894.75
2023-10-03T12:08:08.085Z,98883.03
2023-10-03T12:10:35.755Z,98879.06
2023-10-03T12:13:03.887Z,98871.22
2023-10-03T12:15:31.511Z,98904.72
2023-10-03T12:18:00.244Z,98894.63
2023-10-03T12:20:27.972Z,98897.78
2023-10-03T12:22:55.439Z,98900.41
2023-10-03T12:25:25.385Z,98903.28
2023-10-03T12:27:52.467Z,98902.44
2023-10-03T12:30:19.407Z,98903.28
2023-10-03T12:32:49.152Z,98893.50
2023-10-03T12:35:17.288Z,98894.13
2023-10-03T12:37:47.255Z,98898.09
2023-10-03T12:40:19.643Z,98894.31
2023-10-03T12:42:51.452Z,98906.75
2023-10-03T12:45:23.700Z,98911.34
2023-10-03T12:47:55.912Z,98910.88
2023-10-03T12:50:24.880Z,98934.13
2023-10-03T12:52:57.140Z,98925.00
2023-10-03T12:55:28.277Z,98925.00
2023-10-03T12:57:57.578Z,98923.53
2023-10-03T13:00:25.628Z,98929.50
2023-10-03T13:02:56.084Z,98926.97
2023-10-03T13:05:24.311Z,98924.81
2023-10-03T13:07:54.791Z,98918.06
2023-10-03T13:10:24.167Z,98932.50
2023-10-03T13:12:55.524Z,98933.97
2023-10-03T13:15:23.232Z,98944.09
2023-10-03T13:17:55.053Z,98935.97
2023-10-03T13:20:25.620Z,98948.59
2023-10-03T13:22:53.510Z,98942.63
2023-10-03T13:25:23.889Z,98954.69
2023-10-03T13:27:54.285Z,98941.28
2023-10-03T13:30:29.216Z,98952.56
2023-10-03T13:32:58.443Z,98985.53
2023-10-03T13:35:26.031Z,98971.47
2023-10-03T13:37:53.926Z,98971.63
2023-10-03T13:40:20.852Z,98962.50
2023-10-03T13:42:49.626Z,98965.13
2023-10-03T13:45:18.030Z,98975.09
2023-10-03T13:47:46.525Z,98989.34
2023-10-03T13:50:14.411Z,98989.34
2023-10-03T13:52:44.051Z,99001.28
2023-10-03T13:55:12.064Z,98995.75
2023-10-03T13:57:43.455Z,98995.75
2023-10-03T14:00:15.156Z,98996.19
2023-10-03T14:02:48.722Z,99000.19
2023-10-03T14:05:17.381Z,99011.13
2023-10-03T14:07:44.664Z,99006.47
2023-10-03T14:10:14.418Z,98995.19
2023-10-03T14:12:42.464Z,98989.88
2023-10-03T14:15:15.424Z,99007.13
2023-10-03T14:17:43.008Z,99006.78
2023-10-03T14:20:13.249Z,99015.22
2023-10-03T14:22:41.987Z,99007.22
2023-10-03T14:25:15.183Z,99009.88
2023-10-03T14:27:43.739Z,99026.94
2023-10-03T14:30:11.877Z,99034.38
2023-10-03T14:32:41.758Z,99024.56
2023-10-03T14:35:09.770Z,99023.06
2023-10-03T14:37:37.391Z,99046.91
2023-10-03T14:40:11.193Z,99055.97
2023-10-03T14:42:39.337Z,99049.72
2023-10-03T14:45:09.739Z,99046.41
2023-10-03T14:47:37.108Z,99056.50
2023-10-03T14:50:05.762Z,99046.25
2023-10-03T14:52:32.819Z,99056.97
2023-10-03T14:55:00.708Z,99043.63
2023-10-03T14:57:27.800Z,99051.13
2023-10-03T14:59:55.819Z,99050.72
2023-10-03T15:02:23.618Z,99045.41
2023-10-03T15:04:51.430Z,99047.41
2023-10-03T15:07:18.398Z,99056.97
2023-10-03T15:09:45.578Z,99058.78
2023-10-03T15:12:13.874Z,99077.66
2023-10-03T15:14:41.706Z,99067.75
2023-10-03T15:17:09.620Z,99067.06
2023-10-03T15:19:37.113Z,99058.00
2023-10-03T15:22:13.382Z,99060.56
2023-10-03T15:24:41.067Z,99063.03
2023-10-03T15:27:10.669Z,99039.03
2023-10-03T15:29:38.281Z,99076.38
2023-10-03T15:32:05.450Z,99065.25
2023-10-03T15:34:33.729Z,99071.00
2023-10-03T15:37:08.698Z,99072.50
2023-10-03T15:39:36.149Z,99101.25
2023-10-03T15:42:03.270Z,99106.06
2023-10-03T15:44:30.533Z,99105.69
2023-10-03T15:46:57.566Z,99109.56
2023-10-03T15:49:25.256Z,99151.13
2023-10-03T15:51:52.246Z,99158.38
2023-10-03T15:54:19.188Z,99144.69
2023-10-03T15:56:46.146Z,99177.50
2023-10-03T15:59:14.836Z,99194.66
2023-10-03T16:01:42.114Z,99213.50
2023-10-03T16:04:09.475Z,99235.13
2023-10-03T16:06:39.344Z,99277.84
2023-10-03T16:09:15.655Z,99304.56
2023-10-03T16:11:43.876Z,99345.88
2023-10-03T16:14:15.786Z,99357.66
2023-10-03T16:16:44.849Z,99364.53
2023-10-03T16:19:12.303Z,99386.91
2023-10-03T16:21:40.184Z,99383.13
2023-10-03T16:24:11.757Z,99394.66
2023-10-03T16:26:39.071Z,99394.47
2023-10-03T16:29:06.548Z,99406.03
2023-10-03T16:31:34.632Z,99407.00
2023-10-03T16:34:01.728Z,99393.19
2023-10-03T16:36:29.860Z,99414.50
2023-10-03T16:38:56.894Z,99395.16
2023-10-03T16:41:24.901Z,99439.53
2023-10-03T16:43:51.875Z,99454.94
2023-10-03T16:46:18.776Z,99441.34
2023-10-03T16:48:46.216Z,99457.38
2023-10-03T16:51:15.357Z,99489.41
2023-10-03T16:53:43.218Z,99499.66
2023-10-03T16:56:10.226Z,99504.56
2023-10-03T16:58:37.089Z,99508.09
2023-10-03T17:01:04.140Z,99508.78
2023-10-03T17:03:31.774Z,99519.16
2023-10-03T17:05:58.977Z,99531.44
2023-10-03T17:08:26.108Z,99544.47
2023-10-03T17:10:53.274Z,99539.63
2023-10-03T17:13:20.412Z,99569.06
2023-10-03T17:15:47.569Z,99569.75
2023-10-03T17:18:14.477Z,99583.13
2023-10-03T17:20:41.448Z,99600.59
2023-10-03T17:23:08.383Z,99610.47
2023-10-03T17:25:40.371Z,99623.50
2023-10-03T17:28:07.687Z,99615.56
2023-10-03T17:30:34.974Z,99631.69
2023-10-03T17:33:04.781Z,99634.91
2023-10-03T17:35:33.110Z,99631.31
2023-10-03T17:37:59.994Z,99632.44
2023-10-03T17:40:27.021Z,99655.91
2023-10-03T17:42:58.736Z,99646.28
2023-10-03T17:45:25.977Z,99637.19
2023-10-03T17:47:53.259Z,99667.84
2023-10-03T17:50:20.199Z,99662.41
2023-10-03T17:52:49.189Z,99683.97
2023-10-03T17:55:16.144Z,99670.16
2023-10-03T17:57:44.339Z,99678.84
2023-10-03T18:00:17.104Z,99680.34
2023-10-03T18:02:49.696Z,99685.59
2023-10-03T18:05:18.887Z,99697.78
2023-10-03T18:07:48.362Z,99718.56
2023-10-03T18:10:18.541Z,99723.31
2023-10-03T18:12:45.900Z,99715.13
2023-10-03T18:15:14.308Z,99716.69
2023-10-03T18:17:43.512Z,99728.03
2023-10-03T18:20:15.543Z,99735.81
2023-10-03T18:22:44.600Z,99738.09
2023-10-03T18:25:17.139Z,99734.84
2023-10-03T18:27:46.909Z,99745.53
2023-10-03T18:30:15.179Z,99738.72
2023-10-03T18:32:43.370Z,99762.47
2023-10-03T18:35:14.715Z,99752.19
2023-10-03T18:37:42.971Z,99759.31
2023-10-03T18:40:16.870Z,99773.16
2023-10-03T18:42:43.878Z,99771.28
2023-10-03T18:45:16.571Z,99786.41
2023-10-03T18:47:43.832Z,99789.25
2023-10-03T18:50:11.188Z,99778.75
2023-10-03T18:52:40.227Z,99784.06
2023-10-03T18:55:12.795Z,99796.16
2023-10-03T18:57:40.180Z,99797.50
2023-10-03T19:00:08.427Z,99812.72
2023-10-03T19:02:35.718Z,99819.19
2023-10-03T19:05:04.071Z,99826.16
2023-10-03T19:07:32.038Z,99836.53
2023-10-03T19:09:59.686Z,99833.16
2023-10-03T19:12:26.845Z,99851.09
2023-10-03T19:14:54.105Z,99850.88
2023-10-03T19:17:21.124Z,99857.72
2023-10-03T19:19:51.008Z,99859.50
2023-10-03T19:22:18.082Z,99852.97
2023-10-03T19:24:47.021Z,99865.50
2023-10-03T19:27:13.965Z,99853.06
2023-10-03T19:29:42.285Z,99869.72
2023-10-03T19:32:10.324Z,99869.47
2023-10-03T19:34:37.189Z,99882.84
2023-10-03T19:37:04.934Z,99891.56
2023-10-03T19:39:32.234Z,99873.16
2023-10-03T19:42:04.403Z,99893.75
2023-10-03T19:44:31.290Z,99894.06
2023-10-03T19:47:02.200Z,99894.34
2023-10-03T19:49:32.039Z,99899.78
2023-10-03T19:51:59.375Z,99904.28
2023-10-03T19:54:26.324Z,99905.03
2023-10-03T19:56:54.637Z,99924.13
2023-10-03T19:59:22.076Z,99920.00
2023-10-03T20:01:48.996Z,99938.09
2023-10-03T20:04:15.893Z,99935.38
2023-10-03T20:06:43.044Z,99946.44
2023-10-03T20:09:12.819Z,99955.97
2023-10-03T20:11:41.041Z,99952.22
2023-10-03T20:14:11.181Z,99956.63
2023-10-03T20:16:39.496Z,99974.13
2023-10-03T20:19:07.364Z,99954.00
2023-10-03T20:21:34.919Z,99967.78
2023-10-03T20:24:02.116Z,99975.81
2023-10-03T20:26:31.267Z,99972.06
2023-10-03T20:28:58.884Z,99984.25
2023-10-03T20:31:25.776Z,99981.63
2023-10-03T20:33:52.840Z,99988.19
2023-10-03T20:36:19.981Z,99970.03
2023-10-03T20:38:47.362Z,99989.50
2023-10-03T20:41:14.274Z,99989.75
2023-10-03T20:43:41.608Z,99996.41
2023-10-03T20:46:16.509Z,99992.22
2023-10-03T20:48:44.049Z,100007.94
2023-10-03T20:51:37.421Z,99992.47
2023-10-03T20:54:04.485Z,100009.69
2023-10-03T20:56:31.410Z,99997.94
2023-10-03T20:58:59.074Z,100006.13
2023-10-03T21:01:26.115Z,100009.50
2023-10-03T21:03:53.130Z,99999.75
2023-10-03T21:06:20.214Z,99997.88
2023-10-03T21:08:47.106Z,99996.94
2023-10-03T21:11:15.829Z,99983.47
2023-10-03T21:13:43.938Z,100011.72
2023-10-03T21:16:10.968Z,100008.84
2023-10-03T21:18:37.818Z,100003.63
2023-10-03T21:21:04.813Z,100024.56
2023-10-03T21:23:32.746Z,100030.94
2023-10-03T21:26:07.691Z,100036.00
2023-10-03T21:28:35.824Z,100039.94
2023-10-03T21:31:05.562Z,100050.22
2023-10-03T21:33:32.929Z,100043.19
2023-10-03T21:36:02.283Z,100039.75
2023-10-03T21:38:29.905Z,100037.38
2023-10-03T21:40:56.827Z,100015.84
2023-10-03T21:43:24.726Z,100032.69
2023-10-03T21:45:51.689Z,100033.38
2023-10-03T21:48:18.813Z,100042.75
2023-10-03T21:50:46.504Z,100044.16
2023-10-03T21:53:14.092Z,100047.66
2023-10-03T21:55:48.703Z,100054.50
2023-10-03T21:58:15.605Z,100069.50
2023-10-03T22:00:47.200Z,100065.47
2023-10-03T22:03:16.075Z,100073.03
2023-10-03T22:05:46.781Z,100081.84
2023-10-03T22:08:13.661Z,100085.22
2023-10-03T22:10:45.692Z,100085.44
2023-10-03T22:13:13.952Z,100087.31
2023-10-03T22:15:41.189Z,100072.72
2023-10-03T22:18:08.957Z,100083.88
2023-10-03T22:20:35.897Z,100089.09
2023-10-03T22:23:03.075Z,100074.75
2023-10-03T22:25:30.527Z,100078.38
2023-10-03T22:27:58.721Z,100091.28
2023-10-03T22:30:25.829Z,100099.28
2023-10-03T22:32:52.873Z,100102.00
2023-10-03T22:35:19.876Z,100104.63
2023-10-03T22:38:01.734Z,100102.41
2023-10-03T22:40:38.183Z,100109.34
2023-10-03T22:43:09.007Z,100104.03
2023-10-03T22:45:36.150Z,100091.03
2023-10-03T22:48:03.798Z,100107.91
2023-10-03T22:50:31.489Z,100094.91
2023-10-03T22:52:58.429Z,100100.22
2023-10-03T22:55:25.420Z,100077.63
2023-10-03T22:57:52.367Z,100093.13
2023-10-03T23:00:19.332Z,100089.84
2023-10-03T23:02:46.381Z,100100.13
2023-10-03T23:05:13.960Z,100091.13
2023-10-03T23:07:40.958Z,100089.41
2023-10-03T23:10:11.071Z,100080.59
2023-10-03T23:12:43.052Z,100079.69
2023-10-03T23:15:12.081Z,100096.28
2023-10-03T23:17:40.487Z,100080.84
2023-10-03T23:20:08.837Z,100097.81
2023-10-03T23:22:36.289Z,100099.66
2023-10-03T23:25:05.127Z,100098.81
2023-10-03T23:27:32.151Z,100096.28
2023-10-03T23:29:59.283Z,100098.13
2023-10-03T23:32:26.191Z,100082.06
2023-10-03T23:34:53.110Z,100076.78
2023-10-03T23:37:21.346Z,100074.44
2023-10-03T23:39:52.499Z,100083.75
2023-10-03T23:42:21.049Z,100078.94
2023-10-03T23:44:48.603Z,100084.16
2023-10-03T23:47:15.587Z,100100.59
2023-10-03T23:49:45.291Z,100095.69
2023-10-03T23:52:15.269Z,100096.47
2023-10-03T23:54:43.242Z,100088.44
2023-10-03T23:57:17.993Z,100091.31
2023-10-03T23:59:45.351Z,100092.31
